This is the latest recevied weather packets stored in our database for station/object HS2LXA-WX. If no packets are shown the sender has not sent any weather packets the latest 10 day(s).
| Time | Temp. | Humidity | Pressure | Rain* | Wind** | Luminosity | Snow |
|---|---|---|---|---|---|---|---|
| 1777610467 | 32.22° C | 68% | 1013.2 hPa | 0 mm | - | - | - |
| 1777609288 | 32.78° C | 67% | 1013.1 hPa | 0 mm | - | - | - |
| 1777608688 | 32.78° C | 68% | 1013.1 hPa | 0 mm | - | - | - |
| 1777608057 | 32.22° C | 71% | 1013.1 hPa | 0 mm | - | - | - |
| 1777607457 | 32.22° C | 71% | 1013.2 hPa | 0 mm | - | - | - |
| 1777606857 | 32.22° C | 70% | 1013.1 hPa | 0 mm | - | - | - |
| 1777606257 | 31.67° C | 71% | 1013.1 hPa | 0 mm | - | - | - |
| 1777605656 | 31.67° C | 70% | 1013.1 hPa | 0 mm | - | - | - |
| 1777605056 | 31.67° C | 72% | 1013.1 hPa | 0 mm | - | - | - |
| 1777604067 | 31.11° C | 73% | 1013.1 hPa | 0 mm | - | - | - |
| 1777603466 | 31.11° C | 74% | 1013.1 hPa | 0 mm | - | - | - |
| 1777602868 | 31.11° C | 73% | 1013.2 hPa | 0 mm | - | - | - |
| 1777602071 | 31.11° C | 74% | 1013.1 hPa | 0 mm | - | - | - |
| 1777601311 | 31.11° C | 75% | 1013.2 hPa | 0 mm | - | - | - |
| 1777600254 | 31.11° C | 76% | 1013.2 hPa | 0 mm | - | - | - |
| 1777599653 | 30.56° C | 77% | 1013.1 hPa | 0 mm | - | - | - |
| 1777598480 | 30.56° C | 76% | 1013.1 hPa | 0 mm | - | - | - |
| 1777597880 | 30.56° C | 76% | 1013.2 hPa | 0 mm | - | - | - |
| 1777597280 | 30° C | 77% | 1013.1 hPa | 0 mm | - | - | - |
| 1777596681 | 30.56° C | 75% | 1013.1 hPa | 0 mm | - | - | - |
| 1777596078 | 30.56° C | 73% | 1013.2 hPa | 0 mm | - | - | - |
| 1777595400 | 30.56° C | 73% | 1013.2 hPa | 0 mm | - | - | - |
| 1777594800 | 30.56° C | 74% | 1013.2 hPa | 0 mm | - | - | - |
| 1777594199 | 31.11° C | 74% | 1013.1 hPa | 0 mm | - | - | - |
| 1777593532 | 31.11° C | 74% | 1013.2 hPa | 2.29 mm | - | - | - |
* Rain latest hour (hover to see other rain measurements)
** Current wind speed in m/s (hover to see current wind gust speed)